CheckWX is a tool to help pilots better visualize weather data.  It is not intended as a substitute for an official pre-flight weather briefing.

06:54:41 UTC

KLAS TAF
Mc Carran International Airport
Las Vegas, Nevada, USA
KLAS 260520Z 2606/2712 20009KT P6SM SCT250 FM261000 17006KT P6SM SCT250 FM261800 19015G26KT P6SM SCT250 FM270400 20009KT P6SM SCT250

Jun-26@
06:00 UTC

Jun-26 @ 06:00 UTC

Jun-26@
10:00 UTC

Jun-26 @ 10:00 UTC

KLAS 260520Z 2606/2712 20009KT P6SM SCT250
Wind
  • 200° at 9 KTS
Cloud Levels
  • Scattered at 25,000' AGL

Jun-26@
10:00 UTC

Jun-26 @ 10:00 UTC

Jun-26@
18:00 UTC

Jun-26 @ 18:00 UTC

FM261000 17006KT P6SM SCT250

From

From Standard forecast or significant change

Wind
  • 170° at 6 KTS
Cloud Levels
  • Scattered at 25,000' AGL

Jun-26@
18:00 UTC

Jun-26 @ 18:00 UTC

Jun-27@
04:00 UTC

Jun-27 @ 04:00 UTC

FM261800 19015G26KT P6SM SCT250

From

From Standard forecast or significant change

Wind
  • 190° at 15 KTS
  • {Gusting to 26 KTS
Cloud Levels
  • Scattered at 25,000' AGL

Jun-27@
04:00 UTC

Jun-27 @ 04:00 UTC

Jun-27@
12:00 UTC

Jun-27 @ 12:00 UTC

FM270400 20009KT P6SM SCT250

From

From Standard forecast or significant change

Wind
  • 200° at 9 KTS
Cloud Levels
  • Scattered at 25,000' AGL